sensor_id;sensor_type;location;lat;lon;timestamp;temperature;humidity
52709;DHT22;38606;52.986;6.980;2023-04-15T00:00:38;8.30;99.90
52709;DHT22;38606;52.986;6.980;2023-04-15T00:03:04;7.30;99.90
52709;DHT22;38606;52.986;6.980;2023-04-15T00:05:31;7.20;99.90
52709;DHT22;38606;52.986;6.980;2023-04-15T00:07:58;7.30;99.90
52709;DHT22;38606;52.986;6.980;2023-04-15T00:10:27;7.40;99.90
52709;DHT22;38606;52.986;6.980;2023-04-15T00:12:53;7.10;99.90
52709;DHT22;38606;52.986;6.980;2023-04-15T00:15:19;7.20;99.90
52709;DHT22;38606;52.986;6.980;2023-04-15T00:17:45;7.10;99.90
52709;DHT22;38606;52.986;6.980;2023-04-15T00:20:11;8.50;99.90
52709;DHT22;38606;52.986;6.980;2023-04-15T00:22:40;7.00;99.90
52709;DHT22;38606;52.986;6.980;2023-04-15T00:25:06;7.00;99.90
52709;DHT22;38606;52.986;6.980;2023-04-15T00:27:31;6.80;99.90
52709;DHT22;38606;52.986;6.980;2023-04-15T00:29:57;7.10;99.90
52709;DHT22;38606;52.986;6.980;2023-04-15T00:32:23;6.80;99.90
52709;DHT22;38606;52.986;6.980;2023-04-15T00:34:49;6.90;99.90
52709;DHT22;38606;52.986;6.980;2023-04-15T00:37:15;4.90;99.90
52709;DHT22;38606;52.986;6.980;2023-04-15T00:39:40;7.00;99.90
52709;DHT22;38606;52.986;6.980;2023-04-15T00:42:06;7.20;99.90
52709;DHT22;38606;52.986;6.980;2023-04-15T00:44:32;6.90;99.90
52709;DHT22;38606;52.986;6.980;2023-04-15T00:46:59;6.70;99.90
52709;DHT22;38606;52.986;6.980;2023-04-15T00:49:26;6.80;99.90
52709;DHT22;38606;52.986;6.980;2023-04-15T00:51:53;6.90;99.90
52709;DHT22;38606;52.986;6.980;2023-04-15T00:54:20;7.80;99.90
52709;DHT22;38606;52.986;6.980;2023-04-15T00:56:46;6.80;99.90
52709;DHT22;38606;52.986;6.980;2023-04-15T00:59:13;6.90;99.90
52709;DHT22;38606;52.986;6.980;2023-04-15T01:01:39;6.90;99.90
52709;DHT22;38606;52.986;6.980;2023-04-15T01:04:05;6.10;99.90
52709;DHT22;38606;52.986;6.980;2023-04-15T01:06:31;7.20;99.90
52709;DHT22;38606;52.986;6.980;2023-04-15T01:08:57;7.00;99.90
52709;DHT22;38606;52.986;6.980;2023-04-15T01:11:23;6.80;99.90
52709;DHT22;38606;52.986;6.980;2023-04-15T01:13:50;6.70;99.90
52709;DHT22;38606;52.986;6.980;2023-04-15T01:16:18;6.70;99.90
52709;DHT22;38606;52.986;6.980;2023-04-15T01:18:43;7.80;99.90
52709;DHT22;38606;52.986;6.980;2023-04-15T01:21:10;6.80;99.90
52709;DHT22;38606;52.986;6.980;2023-04-15T01:23:37;6.50;99.90
52709;DHT22;38606;52.986;6.980;2023-04-15T01:26:03;6.50;99.90
52709;DHT22;38606;52.986;6.980;2023-04-15T01:28:33;6.60;99.90
52709;DHT22;38606;52.986;6.980;2023-04-15T01:31:10;6.60;99.90
52709;DHT22;38606;52.986;6.980;2023-04-15T01:33:37;6.40;99.90
52709;DHT22;38606;52.986;6.980;2023-04-15T01:36:04;6.50;99.90
52709;DHT22;38606;52.986;6.980;2023-04-15T01:38:31;6.40;99.90
52709;DHT22;38606;52.986;6.980;2023-04-15T01:40:57;7.00;99.90
52709;DHT22;38606;52.986;6.980;2023-04-15T01:43:25;6.20;99.90
52709;DHT22;38606;52.986;6.980;2023-04-15T01:45:50;6.40;99.90
52709;DHT22;38606;52.986;6.980;2023-04-15T01:48:16;6.50;99.90
52709;DHT22;38606;52.986;6.980;2023-04-15T01:50:42;6.80;99.90
52709;DHT22;38606;52.986;6.980;2023-04-15T01:53:08;7.30;99.90
52709;DHT22;38606;52.986;6.980;2023-04-15T01:55:34;6.50;99.90
52709;DHT22;38606;52.986;6.980;2023-04-15T01:58:00;6.30;99.90
52709;DHT22;38606;52.986;6.980;2023-04-15T02:00:25;6.30;99.90
52709;DHT22;38606;52.986;6.980;2023-04-15T02:02:51;6.40;99.90
52709;DHT22;38606;52.986;6.980;2023-04-15T02:05:17;6.70;99.90
52709;DHT22;38606;52.986;6.980;2023-04-15T02:07:44;6.10;99.90
52709;DHT22;38606;52.986;6.980;2023-04-15T02:10:10;6.00;99.90
52709;DHT22;38606;52.986;6.980;2023-04-15T02:12:38;5.90;99.90
52709;DHT22;38606;52.986;6.980;2023-04-15T02:15:04;6.40;99.90
52709;DHT22;38606;52.986;6.980;2023-04-15T02:17:33;7.00;99.90
52709;DHT22;38606;52.986;6.980;2023-04-15T02:20:00;7.60;99.90
52709;DHT22;38606;52.986;6.980;2023-04-15T02:22:26;5.90;99.90
52709;DHT22;38606;52.986;6.980;2023-04-15T02:24:52;5.90;99.90
52709;DHT22;38606;52.986;6.980;2023-04-15T02:27:18;6.70;99.90
52709;DHT22;38606;52.986;6.980;2023-04-15T02:29:44;5.80;99.90
52709;DHT22;38606;52.986;6.980;2023-04-15T02:32:11;6.00;99.90
52709;DHT22;38606;52.986;6.980;2023-04-15T02:34:38;6.40;99.90
52709;DHT22;38606;52.986;6.980;2023-04-15T02:37:06;6.20;99.90
52709;DHT22;38606;52.986;6.980;2023-04-15T02:39:32;6.30;99.90
52709;DHT22;38606;52.986;6.980;2023-04-15T02:41:58;7.30;99.90
52709;DHT22;38606;52.986;6.980;2023-04-15T02:44:26;5.70;99.90
52709;DHT22;38606;52.986;6.980;2023-04-15T02:46:52;5.80;99.90
52709;DHT22;38606;52.986;6.980;2023-04-15T02:49:22;6.60;99.90
52709;DHT22;38606;52.986;6.980;2023-04-15T02:51:48;6.10;99.90
52709;DHT22;38606;52.986;6.980;2023-04-15T02:54:21;5.90;99.90
52709;DHT22;38606;52.986;6.980;2023-04-15T02:56:50;5.90;99.90
52709;DHT22;38606;52.986;6.980;2023-04-15T02:59:19;5.70;99.90
52709;DHT22;38606;52.986;6.980;2023-04-15T03:01:45;5.70;99.90
52709;DHT22;38606;52.986;6.980;2023-04-15T03:04:11;5.70;99.90
52709;DHT22;38606;52.986;6.980;2023-04-15T03:06:38;5.80;99.90
52709;DHT22;38606;52.986;6.980;2023-04-15T03:09:04;6.40;99.90
52709;DHT22;38606;52.986;6.980;2023-04-15T03:11:30;5.70;99.90
52709;DHT22;38606;52.986;6.980;2023-04-15T03:13:56;6.40;99.90
52709;DHT22;38606;52.986;6.980;2023-04-15T03:16:23;5.60;99.90
52709;DHT22;38606;52.986;6.980;2023-04-15T03:18:48;6.90;99.90
52709;DHT22;38606;52.986;6.980;2023-04-15T03:21:15;5.50;99.90
52709;DHT22;38606;52.986;6.980;2023-04-15T03:23:40;6.80;99.90
52709;DHT22;38606;52.986;6.980;2023-04-15T03:26:06;6.30;99.90
52709;DHT22;38606;52.986;6.980;2023-04-15T03:28:32;5.50;99.90
52709;DHT22;38606;52.986;6.980;2023-04-15T03:30:58;5.50;99.90
52709;DHT22;38606;52.986;6.980;2023-04-15T03:33:24;5.40;99.90
52709;DHT22;38606;52.986;6.980;2023-04-15T03:35:50;6.10;99.90
52709;DHT22;38606;52.986;6.980;2023-04-15T03:38:17;5.40;99.90
52709;DHT22;38606;52.986;6.980;2023-04-15T03:40:42;5.70;99.90
52709;DHT22;38606;52.986;6.980;2023-04-15T03:43:08;6.00;99.90
52709;DHT22;38606;52.986;6.980;2023-04-15T03:45:34;6.60;99.90
52709;DHT22;38606;52.986;6.980;2023-04-15T03:48:00;5.40;99.90
52709;DHT22;38606;52.986;6.980;2023-04-15T03:50:26;6.30;99.90
52709;DHT22;38606;52.986;6.980;2023-04-15T03:52:52;5.30;99.90
52709;DHT22;38606;52.986;6.980;2023-04-15T03:55:18;5.20;99.90
52709;DHT22;38606;52.986;6.980;2023-04-15T03:57:44;5.40;99.90
52709;DHT22;38606;52.986;6.980;2023-04-15T04:00:11;4.50;99.90
52709;DHT22;38606;52.986;6.980;2023-04-15T04:02:37;5.10;99.90
52709;DHT22;38606;52.986;6.980;2023-04-15T04:05:03;4.90;99.90
52709;DHT22;38606;52.986;6.980;2023-04-15T04:07:29;5.10;99.90
52709;DHT22;38606;52.986;6.980;2023-04-15T04:09:56;5.40;99.90
52709;DHT22;38606;52.986;6.980;2023-04-15T04:12:22;6.30;99.90
52709;DHT22;38606;52.986;6.980;2023-04-15T04:14:47;4.90;99.90
52709;DHT22;38606;52.986;6.980;2023-04-15T04:17:13;5.10;99.90
52709;DHT22;38606;52.986;6.980;2023-04-15T04:19:39;5.10;99.90
52709;DHT22;38606;52.986;6.980;2023-04-15T04:22:05;5.00;99.90
52709;DHT22;38606;52.986;6.980;2023-04-15T04:24:30;5.20;99.90
52709;DHT22;38606;52.986;6.980;2023-04-15T04:26:56;5.30;99.90
52709;DHT22;38606;52.986;6.980;2023-04-15T04:29:22;6.00;99.90
52709;DHT22;38606;52.986;6.980;2023-04-15T04:31:48;4.80;99.90
52709;DHT22;38606;52.986;6.980;2023-04-15T04:34:14;5.00;99.90
52709;DHT22;38606;52.986;6.980;2023-04-15T04:36:40;4.90;99.90
52709;DHT22;38606;52.986;6.980;2023-04-15T04:39:06;5.90;99.90
52709;DHT22;38606;52.986;6.980;2023-04-15T04:41:32;4.90;99.90
52709;DHT22;38606;52.986;6.980;2023-04-15T04:43:58;5.40;99.90
52709;DHT22;38606;52.986;6.980;2023-04-15T04:46:24;4.70;99.90
52709;DHT22;38606;52.986;6.980;2023-04-15T04:48:50;4.70;99.90
52709;DHT22;38606;52.986;6.980;2023-04-15T04:51:15;5.30;99.90
52709;DHT22;38606;52.986;6.980;2023-04-15T04:53:41;4.90;99.90
52709;DHT22;38606;52.986;6.980;2023-04-15T04:56:08;6.40;99.90
52709;DHT22;38606;52.986;6.980;2023-04-15T04:58:33;4.80;99.90
52709;DHT22;38606;52.986;6.980;2023-04-15T05:00:59;5.20;99.90
52709;DHT22;38606;52.986;6.980;2023-04-15T05:03:25;5.00;99.90
52709;DHT22;38606;52.986;6.980;2023-04-15T05:05:51;5.10;99.90
52709;DHT22;38606;52.986;6.980;2023-04-15T05:08:17;4.80;99.90
52709;DHT22;38606;52.986;6.980;2023-04-15T05:10:43;4.80;99.90
52709;DHT22;38606;52.986;6.980;2023-04-15T05:13:09;5.10;99.90
52709;DHT22;38606;52.986;6.980;2023-04-15T05:15:34;6.20;99.90
52709;DHT22;38606;52.986;6.980;2023-04-15T05:18:01;5.00;99.90
52709;DHT22;38606;52.986;6.980;2023-04-15T05:20:27;5.00;99.90
52709;DHT22;38606;52.986;6.980;2023-04-15T05:22:53;4.90;99.90
52709;DHT22;38606;52.986;6.980;2023-04-15T05:25:19;6.00;99.90
52709;DHT22;38606;52.986;6.980;2023-04-15T05:27:45;5.00;99.90
52709;DHT22;38606;52.986;6.980;2023-04-15T05:30:11;4.80;99.90
52709;DHT22;38606;52.986;6.980;2023-04-15T05:32:37;5.00;99.90
52709;DHT22;38606;52.986;6.980;2023-04-15T05:35:03;5.60;99.90
52709;DHT22;38606;52.986;6.980;2023-04-15T05:37:29;5.00;99.90
52709;DHT22;38606;52.986;6.980;2023-04-15T05:39:55;5.10;99.90
52709;DHT22;38606;52.986;6.980;2023-04-15T05:42:21;5.90;99.90
52709;DHT22;38606;52.986;6.980;2023-04-15T05:44:47;6.00;99.90
52709;DHT22;38606;52.986;6.980;2023-04-15T05:47:12;5.30;99.90
52709;DHT22;38606;52.986;6.980;2023-04-15T05:49:38;5.10;99.90
52709;DHT22;38606;52.986;6.980;2023-04-15T05:52:04;5.50;99.90
52709;DHT22;38606;52.986;6.980;2023-04-15T05:54:30;5.30;99.90
52709;DHT22;38606;52.986;6.980;2023-04-15T05:56:56;5.10;99.90
52709;DHT22;38606;52.986;6.980;2023-04-15T05:59:22;5.40;99.90
52709;DHT22;38606;52.986;6.980;2023-04-15T06:01:48;5.30;99.90
52709;DHT22;38606;52.986;6.980;2023-04-15T06:04:16;5.60;99.90
52709;DHT22;38606;52.986;6.980;2023-04-15T06:06:42;5.60;99.90
52709;DHT22;38606;52.986;6.980;2023-04-15T06:09:08;5.60;99.90
52709;DHT22;38606;52.986;6.980;2023-04-15T06:11:33;6.20;99.90
52709;DHT22;38606;52.986;6.980;2023-04-15T06:13:59;6.20;99.90
52709;DHT22;38606;52.986;6.980;2023-04-15T06:16:25;5.90;99.90
52709;DHT22;38606;52.986;6.980;2023-04-15T06:18:51;6.70;99.90
52709;DHT22;38606;52.986;6.980;2023-04-15T06:21:17;6.90;99.90
52709;DHT22;38606;52.986;6.980;2023-04-15T06:23:43;6.30;99.90
52709;DHT22;38606;52.986;6.980;2023-04-15T06:26:09;6.20;99.90
52709;DHT22;38606;52.986;6.980;2023-04-15T06:28:35;7.60;99.90
52709;DHT22;38606;52.986;6.980;2023-04-15T06:31:00;6.40;99.90
52709;DHT22;38606;52.986;6.980;2023-04-15T06:33:26;6.90;99.90
52709;DHT22;38606;52.986;6.980;2023-04-15T06:35:52;6.50;99.90
52709;DHT22;38606;52.986;6.980;2023-04-15T06:38:18;6.50;99.90
52709;DHT22;38606;52.986;6.980;2023-04-15T06:40:43;6.70;99.90
52709;DHT22;38606;52.986;6.980;2023-04-15T06:43:09;6.90;99.90
52709;DHT22;38606;52.986;6.980;2023-04-15T06:45:35;8.00;99.90
52709;DHT22;38606;52.986;6.980;2023-04-15T06:48:00;6.80;99.90
52709;DHT22;38606;52.986;6.980;2023-04-15T06:50:26;7.10;99.90
52709;DHT22;38606;52.986;6.980;2023-04-15T06:52:55;7.70;99.90
52709;DHT22;38606;52.986;6.980;2023-04-15T06:55:21;7.20;99.90
52709;DHT22;38606;52.986;6.980;2023-04-15T06:57:47;8.80;99.90
52709;DHT22;38606;52.986;6.980;2023-04-15T07:00:13;7.40;99.90
52709;DHT22;38606;52.986;6.980;2023-04-15T07:02:40;7.20;99.90
52709;DHT22;38606;52.986;6.980;2023-04-15T07:05:06;7.50;99.90
52709;DHT22;38606;52.986;6.980;2023-04-15T07:07:32;7.70;99.90
52709;DHT22;38606;52.986;6.980;2023-04-15T07:09:57;7.80;99.90
52709;DHT22;38606;52.986;6.980;2023-04-15T07:12:23;7.80;99.90
52709;DHT22;38606;52.986;6.980;2023-04-15T07:14:49;7.70;99.90
52709;DHT22;38606;52.986;6.980;2023-04-15T07:17:15;8.00;99.90
52709;DHT22;38606;52.986;6.980;2023-04-15T07:19:41;9.10;99.90
52709;DHT22;38606;52.986;6.980;2023-04-15T07:22:06;9.00;99.90
52709;DHT22;38606;52.986;6.980;2023-04-15T07:24:32;6.00;99.90
52709;DHT22;38606;52.986;6.980;2023-04-15T07:26:58;8.10;99.90
52709;DHT22;38606;52.986;6.980;2023-04-15T07:29:24;8.20;99.90
52709;DHT22;38606;52.986;6.980;2023-04-15T07:31:51;8.40;99.90
52709;DHT22;38606;52.986;6.980;2023-04-15T07:34:18;8.70;99.90
52709;DHT22;38606;52.986;6.980;2023-04-15T07:36:44;8.70;99.90
52709;DHT22;38606;52.986;6.980;2023-04-15T07:39:10;8.70;99.90
52709;DHT22;38606;52.986;6.980;2023-04-15T07:41:36;8.90;99.90
52709;DHT22;38606;52.986;6.980;2023-04-15T07:44:02;9.10;99.90
52709;DHT22;38606;52.986;6.980;2023-04-15T07:46:28;9.10;99.90
52709;DHT22;38606;52.986;6.980;2023-04-15T07:48:54;8.90;99.90
52709;DHT22;38606;52.986;6.980;2023-04-15T07:51:20;9.20;99.90
52709;DHT22;38606;52.986;6.980;2023-04-15T07:53:49;9.00;99.90
52709;DHT22;38606;52.986;6.980;2023-04-15T07:56:15;9.60;99.90
52709;DHT22;38606;52.986;6.980;2023-04-15T07:58:40;9.30;99.90
52709;DHT22;38606;52.986;6.980;2023-04-15T08:01:07;10.40;99.90
52709;DHT22;38606;52.986;6.980;2023-04-15T08:03:33;9.40;99.90
52709;DHT22;38606;52.986;6.980;2023-04-15T08:05:58;9.40;99.90
52709;DHT22;38606;52.986;6.980;2023-04-15T08:08:24;9.50;99.90
52709;DHT22;38606;52.986;6.980;2023-04-15T08:10:51;9.40;99.90
52709;DHT22;38606;52.986;6.980;2023-04-15T08:13:17;9.40;99.90
52709;DHT22;38606;52.986;6.980;2023-04-15T08:15:42;9.70;99.90
52709;DHT22;38606;52.986;6.980;2023-04-15T08:18:08;9.40;99.90
52709;DHT22;38606;52.986;6.980;2023-04-15T08:20:34;9.40;99.90
52709;DHT22;38606;52.986;6.980;2023-04-15T08:23:00;9.50;99.90
52709;DHT22;38606;52.986;6.980;2023-04-15T08:25:26;9.60;99.90
52709;DHT22;38606;52.986;6.980;2023-04-15T08:27:54;9.60;99.90
52709;DHT22;38606;52.986;6.980;2023-04-15T08:30:20;9.60;99.90
52709;DHT22;38606;52.986;6.980;2023-04-15T08:32:46;9.30;99.90
52709;DHT22;38606;52.986;6.980;2023-04-15T08:35:12;9.40;99.90
52709;DHT22;38606;52.986;6.980;2023-04-15T08:37:38;9.40;99.90
52709;DHT22;38606;52.986;6.980;2023-04-15T08:40:04;9.30;99.90
52709;DHT22;38606;52.986;6.980;2023-04-15T08:42:31;9.30;99.90
52709;DHT22;38606;52.986;6.980;2023-04-15T08:45:03;9.40;99.90
52709;DHT22;38606;52.986;6.980;2023-04-15T08:47:30;9.40;99.90
52709;DHT22;38606;52.986;6.980;2023-04-15T08:49:59;9.40;99.90
52709;DHT22;38606;52.986;6.980;2023-04-15T08:52:30;9.50;99.90
52709;DHT22;38606;52.986;6.980;2023-04-15T08:54:57;9.60;99.90
52709;DHT22;38606;52.986;6.980;2023-04-15T08:57:28;9.50;99.90
52709;DHT22;38606;52.986;6.980;2023-04-15T08:59:57;9.60;99.90
52709;DHT22;38606;52.986;6.980;2023-04-15T09:02:24;9.50;99.90
52709;DHT22;38606;52.986;6.980;2023-04-15T09:04:53;9.40;99.90
52709;DHT22;38606;52.986;6.980;2023-04-15T09:07:18;9.40;99.90
52709;DHT22;38606;52.986;6.980;2023-04-15T09:09:44;9.60;99.90
52709;DHT22;38606;52.986;6.980;2023-04-15T09:12:11;9.70;99.90
52709;DHT22;38606;52.986;6.980;2023-04-15T09:14:39;9.60;99.90
52709;DHT22;38606;52.986;6.980;2023-04-15T09:17:07;9.80;99.90
52709;DHT22;38606;52.986;6.980;2023-04-15T09:19:34;9.80;99.90
52709;DHT22;38606;52.986;6.980;2023-04-15T09:22:01;9.80;99.90
52709;DHT22;38606;52.986;6.980;2023-04-15T09:24:35;10.00;99.90
52709;DHT22;38606;52.986;6.980;2023-04-15T09:27:02;10.70;99.90
52709;DHT22;38606;52.986;6.980;2023-04-15T09:29:28;9.70;99.90
52709;DHT22;38606;52.986;6.980;2023-04-15T09:31:53;10.00;99.90
52709;DHT22;38606;52.986;6.980;2023-04-15T09:34:19;9.90;99.90
52709;DHT22;38606;52.986;6.980;2023-04-15T09:36:55;10.00;99.90
52709;DHT22;38606;52.986;6.980;2023-04-15T09:39:21;9.70;99.90
52709;DHT22;38606;52.986;6.980;2023-04-15T09:42:03;9.70;99.90
52709;DHT22;38606;52.986;6.980;2023-04-15T09:44:30;9.60;99.90
52709;DHT22;38606;52.986;6.980;2023-04-15T09:46:55;9.80;99.90
52709;DHT22;38606;52.986;6.980;2023-04-15T09:49:21;9.80;99.90
52709;DHT22;38606;52.986;6.980;2023-04-15T09:51:47;9.60;99.90
52709;DHT22;38606;52.986;6.980;2023-04-15T09:54:18;9.70;99.90
52709;DHT22;38606;52.986;6.980;2023-04-15T09:56:45;9.80;99.90
52709;DHT22;38606;52.986;6.980;2023-04-15T09:59:11;9.70;99.90
52709;DHT22;38606;52.986;6.980;2023-04-15T10:01:37;10.00;99.90
52709;DHT22;38606;52.986;6.980;2023-04-15T10:04:06;9.60;99.90
52709;DHT22;38606;52.986;6.980;2023-04-15T10:06:32;9.70;99.90
52709;DHT22;38606;52.986;6.980;2023-04-15T10:08:59;9.80;99.90
52709;DHT22;38606;52.986;6.980;2023-04-15T10:11:29;9.80;99.90
52709;DHT22;38606;52.986;6.980;2023-04-15T10:13:56;9.80;99.90
52709;DHT22;38606;52.986;6.980;2023-04-15T10:16:27;9.90;99.90
52709;DHT22;38606;52.986;6.980;2023-04-15T10:18:54;10.00;99.90
52709;DHT22;38606;52.986;6.980;2023-04-15T10:21:20;9.90;99.90
52709;DHT22;38606;52.986;6.980;2023-04-15T10:23:48;9.80;99.90
52709;DHT22;38606;52.986;6.980;2023-04-15T10:26:14;9.80;99.90
52709;DHT22;38606;52.986;6.980;2023-04-15T10:28:41;9.80;99.90
52709;DHT22;38606;52.986;6.980;2023-04-15T10:31:08;9.70;99.90
52709;DHT22;38606;52.986;6.980;2023-04-15T10:33:36;9.80;99.90
52709;DHT22;38606;52.986;6.980;2023-04-15T10:36:03;9.90;99.90
52709;DHT22;38606;52.986;6.980;2023-04-15T10:43:51;9.90;99.90
52709;DHT22;38606;52.986;6.980;2023-04-15T10:46:23;9.80;99.90
52709;DHT22;38606;52.986;6.980;2023-04-15T10:48:51;9.80;99.90
52709;DHT22;38606;52.986;6.980;2023-04-15T10:51:50;9.80;99.90
52709;DHT22;38606;52.986;6.980;2023-04-15T10:54:36;9.70;99.90
52709;DHT22;38606;52.986;6.980;2023-04-15T11:02:56;9.70;99.90
52709;DHT22;38606;52.986;6.980;2023-04-15T11:08:04;9.60;99.90
52709;DHT22;38606;52.986;6.980;2023-04-15T11:12:59;9.60;99.90
52709;DHT22;38606;52.986;6.980;2023-04-15T11:20:42;9.70;99.90
52709;DHT22;38606;52.986;6.980;2023-04-15T11:23:10;9.60;99.90
52709;DHT22;38606;52.986;6.980;2023-04-15T11:25:36;9.80;99.90
52709;DHT22;38606;52.986;6.980;2023-04-15T11:28:03;9.60;99.90
52709;DHT22;38606;52.986;6.980;2023-04-15T11:30:31;9.50;99.90
52709;DHT22;38606;52.986;6.980;2023-04-15T11:33:08;9.60;99.90
52709;DHT22;38606;52.986;6.980;2023-04-15T11:35:35;9.50;99.90
52709;DHT22;38606;52.986;6.980;2023-04-15T11:38:04;9.70;99.90
52709;DHT22;38606;52.986;6.980;2023-04-15T11:40:33;9.80;99.90
52709;DHT22;38606;52.986;6.980;2023-04-15T11:43:20;9.70;99.90
52709;DHT22;38606;52.986;6.980;2023-04-15T11:45:51;9.80;99.90
52709;DHT22;38606;52.986;6.980;2023-04-15T11:48:18;9.60;99.90
52709;DHT22;38606;52.986;6.980;2023-04-15T11:50:44;9.60;99.90
52709;DHT22;38606;52.986;6.980;2023-04-15T11:53:12;9.50;99.90
52709;DHT22;38606;52.986;6.980;2023-04-15T11:55:52;9.50;99.90
52709;DHT22;38606;52.986;6.980;2023-04-15T11:58:20;9.50;99.90
52709;DHT22;38606;52.986;6.980;2023-04-15T12:03:32;9.50;99.90
52709;DHT22;38606;52.986;6.980;2023-04-15T12:06:22;9.60;99.90
52709;DHT22;38606;52.986;6.980;2023-04-15T12:09:02;9.50;99.90
52709;DHT22;38606;52.986;6.980;2023-04-15T12:11:36;9.30;99.90
52709;DHT22;38606;52.986;6.980;2023-04-15T12:16:27;9.40;99.90
52709;DHT22;38606;52.986;6.980;2023-04-15T12:18:55;9.50;99.90
52709;DHT22;38606;52.986;6.980;2023-04-15T12:21:22;9.30;99.90
52709;DHT22;38606;52.986;6.980;2023-04-15T12:23:49;9.40;99.90
52709;DHT22;38606;52.986;6.980;2023-04-15T12:26:17;10.20;99.90
52709;DHT22;38606;52.986;6.980;2023-04-15T12:28:43;9.60;99.90
52709;DHT22;38606;52.986;6.980;2023-04-15T12:31:10;9.80;99.90
52709;DHT22;38606;52.986;6.980;2023-04-15T12:33:36;9.50;99.90
52709;DHT22;38606;52.986;6.980;2023-04-15T12:36:03;9.30;99.90
52709;DHT22;38606;52.986;6.980;2023-04-15T12:38:29;9.30;99.90
52709;DHT22;38606;52.986;6.980;2023-04-15T12:40:56;9.50;99.90
52709;DHT22;38606;52.986;6.980;2023-04-15T12:43:22;9.30;99.90
52709;DHT22;38606;52.986;6.980;2023-04-15T12:45:48;9.30;99.90
52709;DHT22;38606;52.986;6.980;2023-04-15T12:48:14;9.40;99.90
52709;DHT22;38606;52.986;6.980;2023-04-15T12:50:39;9.50;99.90
52709;DHT22;38606;52.986;6.980;2023-04-15T12:53:05;9.40;99.90
52709;DHT22;38606;52.986;6.980;2023-04-15T12:55:31;9.40;99.90
52709;DHT22;38606;52.986;6.980;2023-04-15T12:57:57;9.30;99.90
52709;DHT22;38606;52.986;6.980;2023-04-15T13:00:23;9.20;99.90
52709;DHT22;38606;52.986;6.980;2023-04-15T13:02:48;9.40;99.90
52709;DHT22;38606;52.986;6.980;2023-04-15T13:05:14;9.20;99.90
52709;DHT22;38606;52.986;6.980;2023-04-15T13:07:41;9.20;99.90
52709;DHT22;38606;52.986;6.980;2023-04-15T13:10:07;9.30;99.90
52709;DHT22;38606;52.986;6.980;2023-04-15T13:12:33;9.40;99.90
52709;DHT22;38606;52.986;6.980;2023-04-15T13:15:05;9.40;99.90
52709;DHT22;38606;52.986;6.980;2023-04-15T13:17:30;9.20;99.90
52709;DHT22;38606;52.986;6.980;2023-04-15T13:19:56;9.20;99.90
52709;DHT22;38606;52.986;6.980;2023-04-15T13:22:22;9.20;99.90
52709;DHT22;38606;52.986;6.980;2023-04-15T13:24:48;9.30;99.90
52709;DHT22;38606;52.986;6.980;2023-04-15T13:27:14;9.00;99.90
52709;DHT22;38606;52.986;6.980;2023-04-15T13:29:40;9.20;99.90
52709;DHT22;38606;52.986;6.980;2023-04-15T13:32:06;9.00;99.90
52709;DHT22;38606;52.986;6.980;2023-04-15T13:34:31;9.10;99.90
52709;DHT22;38606;52.986;6.980;2023-04-15T13:36:57;9.10;99.90
52709;DHT22;38606;52.986;6.980;2023-04-15T13:39:23;9.20;99.90
52709;DHT22;38606;52.986;6.980;2023-04-15T13:41:49;9.10;99.90
52709;DHT22;38606;52.986;6.980;2023-04-15T13:44:15;9.00;99.90
52709;DHT22;38606;52.986;6.980;2023-04-15T13:46:41;9.10;99.90
52709;DHT22;38606;52.986;6.980;2023-04-15T13:49:16;9.10;99.90
52709;DHT22;38606;52.986;6.980;2023-04-15T13:51:44;9.10;99.90
52709;DHT22;38606;52.986;6.980;2023-04-15T13:54:10;9.10;99.90
52709;DHT22;38606;52.986;6.980;2023-04-15T13:56:36;8.80;99.90
52709;DHT22;38606;52.986;6.980;2023-04-15T13:59:01;8.90;99.90
52709;DHT22;38606;52.986;6.980;2023-04-15T14:01:28;8.90;99.90
52709;DHT22;38606;52.986;6.980;2023-04-15T14:03:54;9.00;99.90
52709;DHT22;38606;52.986;6.980;2023-04-15T14:06:20;8.90;99.90
52709;DHT22;38606;52.986;6.980;2023-04-15T14:08:45;9.50;99.90
52709;DHT22;38606;52.986;6.980;2023-04-15T14:11:11;9.00;99.90
52709;DHT22;38606;52.986;6.980;2023-04-15T14:13:37;8.90;99.90
52709;DHT22;38606;52.986;6.980;2023-04-15T14:16:03;9.10;99.90
52709;DHT22;38606;52.986;6.980;2023-04-15T14:18:29;8.80;99.90
52709;DHT22;38606;52.986;6.980;2023-04-15T14:20:55;9.10;99.90
52709;DHT22;38606;52.986;6.980;2023-04-15T14:23:22;8.90;99.90
52709;DHT22;38606;52.986;6.980;2023-04-15T14:25:48;8.90;99.90
52709;DHT22;38606;52.986;6.980;2023-04-15T14:28:14;9.50;99.90
52709;DHT22;38606;52.986;6.980;2023-04-15T14:30:40;8.90;99.90
52709;DHT22;38606;52.986;6.980;2023-04-15T14:33:06;8.70;99.90
52709;DHT22;38606;52.986;6.980;2023-04-15T14:35:31;8.90;99.90
52709;DHT22;38606;52.986;6.980;2023-04-15T14:37:57;9.00;99.90
52709;DHT22;38606;52.986;6.980;2023-04-15T14:40:23;8.90;99.90
52709;DHT22;38606;52.986;6.980;2023-04-15T14:42:49;8.80;99.90
52709;DHT22;38606;52.986;6.980;2023-04-15T14:45:14;8.80;99.90
52709;DHT22;38606;52.986;6.980;2023-04-15T14:47:40;8.70;99.90
52709;DHT22;38606;52.986;6.980;2023-04-15T14:50:06;8.90;99.90
52709;DHT22;38606;52.986;6.980;2023-04-15T14:52:32;9.00;99.90
52709;DHT22;38606;52.986;6.980;2023-04-15T14:55:12;8.60;99.90
52709;DHT22;38606;52.986;6.980;2023-04-15T14:57:40;8.70;99.90
52709;DHT22;38606;52.986;6.980;2023-04-15T15:00:07;8.90;99.90
52709;DHT22;38606;52.986;6.980;2023-04-15T15:02:35;8.70;99.90
52709;DHT22;38606;52.986;6.980;2023-04-15T15:05:01;8.60;99.90
52709;DHT22;38606;52.986;6.980;2023-04-15T15:07:28;8.80;99.90
52709;DHT22;38606;52.986;6.980;2023-04-15T15:09:54;8.80;99.90
52709;DHT22;38606;52.986;6.980;2023-04-15T15:12:20;8.90;99.90
52709;DHT22;38606;52.986;6.980;2023-04-15T15:14:48;8.70;99.90
52709;DHT22;38606;52.986;6.980;2023-04-15T15:17:14;8.70;99.90
52709;DHT22;38606;52.986;6.980;2023-04-15T15:19:39;8.80;99.90
52709;DHT22;38606;52.986;6.980;2023-04-15T15:22:05;8.80;99.90
52709;DHT22;38606;52.986;6.980;2023-04-15T15:24:31;8.70;99.90
52709;DHT22;38606;52.986;6.980;2023-04-15T15:26:57;8.50;99.90
52709;DHT22;38606;52.986;6.980;2023-04-15T15:29:23;8.70;99.90
52709;DHT22;38606;52.986;6.980;2023-04-15T15:31:49;7.90;99.90
52709;DHT22;38606;52.986;6.980;2023-04-15T15:34:15;8.60;99.90
52709;DHT22;38606;52.986;6.980;2023-04-15T15:36:41;8.60;99.90
52709;DHT22;38606;52.986;6.980;2023-04-15T15:39:07;8.70;99.90
52709;DHT22;38606;52.986;6.980;2023-04-15T15:41:33;9.00;99.90
52709;DHT22;38606;52.986;6.980;2023-04-15T15:43:58;9.10;99.90
52709;DHT22;38606;52.986;6.980;2023-04-15T15:46:25;8.80;99.90
52709;DHT22;38606;52.986;6.980;2023-04-15T15:48:52;8.80;99.90
52709;DHT22;38606;52.986;6.980;2023-04-15T15:51:19;9.00;99.90
52709;DHT22;38606;52.986;6.980;2023-04-15T15:53:45;8.60;99.90
52709;DHT22;38606;52.986;6.980;2023-04-15T15:56:11;8.70;99.90
52709;DHT22;38606;52.986;6.980;2023-04-15T15:58:37;8.70;99.90
52709;DHT22;38606;52.986;6.980;2023-04-15T16:01:02;8.70;99.90
52709;DHT22;38606;52.986;6.980;2023-04-15T16:03:28;8.80;99.90
52709;DHT22;38606;52.986;6.980;2023-04-15T16:05:54;8.60;99.90
52709;DHT22;38606;52.986;6.980;2023-04-15T16:08:20;8.70;99.90